Time;durP1;ratioP1;P1;durP2;ratioP2;P2;SDS_P1;SDS_P2;PMS_P1;PMS_P2;Temp;Humidity;BMP_temperature;BMP_pressure;BME280_temperature;BME280_humidity;BME280_pressure;Samples;Min_cycle;Max_cycle;Signal;HPM_P1;HPM_P2
2021/12/16 00:09:11;;;;;;;46.22;28.92;;;8.00;99.90;;;;;;5069904;28;20408;-71
2021/12/16 00:20:14;;;;;;;47.70;28.00;;;8.00;99.90;;;;;;5068802;28;20040;-71
2021/12/16 00:31:35;;;;;;;53.13;29.45;;;8.00;99.90;;;;;;5068885;28;20052;-71
2021/12/16 00:33:38;;;;;;;50.72;29.42;;;8.00;99.90;;;;;;5061876;28;20420;-71
2021/12/16 00:36:07;;;;;;;49.67;29.73;;;8.00;99.90;;;;;;5066593;28;20048;-71
2021/12/16 00:38:33;;;;;;;;;;;8.00;99.90;;;;;;5062933;28;20642;-71
2021/12/16 00:41:00;;;;;;;46.17;30.08;;;8.00;99.90;;;;;;5064331;28;19951;-71
2021/12/16 00:54:13;;;;;;;59.70;32.35;;;8.00;99.90;;;;;;5066242;28;20150;-71
2021/12/16 00:56:43;;;;;;;48.58;29.35;;;8.00;99.90;;;;;;5064649;28;20047;-71
2021/12/16 00:59:11;;;;;;;44.92;29.10;;;8.00;99.90;;;;;;5068057;28;21113;-71
2021/12/16 01:01:50;;;;;;;53.78;30.27;;;8.00;99.90;;;;;;5068400;28;20086;-71
2021/12/16 01:35:42;;;;;;;56.22;33.10;;;7.70;99.90;;;;;;5068508;28;20052;-71
2021/12/16 01:40:34;;;;;;;53.92;33.42;;;7.60;99.90;;;;;;5067085;28;20097;-71
2021/12/16 01:49:05;;;;;;;59.40;35.40;;;7.60;99.90;;;;;;5067542;28;20124;-71
2021/12/16 01:51:13;;;;;;;;;;;7.70;99.90;;;;;;5066383;28;20083;-71
2021/12/16 01:59:02;;;;;;;63.70;38.60;;;7.60;99.90;;;;;;5070210;28;20048;-71
2021/12/16 02:01:32;;;;;;;60.67;37.08;;;7.70;99.90;;;;;;5072539;28;20075;-71
2021/12/16 02:04:07;;;;;;;70.40;38.58;;;7.70;99.90;;;;;;5063558;28;20420;-71
2021/12/16 02:09:20;;;;;;;62.78;36.00;;;7.70;99.90;;;;;;5072842;28;20059;-71
2021/12/16 02:12:01;;;;;;;63.13;39.53;;;7.70;99.90;;;;;;5077352;28;20048;-71
2021/12/16 02:28:26;;;;;;;64.18;36.97;;;7.90;99.90;;;;;;5062219;28;20045;-71
2021/12/16 02:34:20;;;;;;;69.15;39.17;;;7.90;99.90;;;;;;5065794;28;20484;-71
2021/12/16 02:36:42;;;;;;;66.43;40.10;;;7.90;99.90;;;;;;5065540;28;20068;-71
2021/12/16 02:39:21;;;;;;;71.45;41.90;;;7.90;99.90;;;;;;5068433;28;20151;-71
2021/12/16 02:41:51;;;;;;;78.18;41.95;;;7.90;99.90;;;;;;5068055;28;20109;-71
2021/12/16 02:49:57;;;;;;;66.18;39.00;;;7.90;99.90;;;;;;5065392;28;20053;-71
2021/12/16 02:52:26;;;;;;;69.13;38.72;;;8.00;99.90;;;;;;5067318;28;20413;-71
2021/12/16 02:54:52;;;;;;;77.35;40.17;;;8.00;99.90;;;;;;5063125;28;20037;-71
2021/12/16 02:57:19;;;;;;;72.55;38.72;;;8.00;99.90;;;;;;5063313;28;20086;-71
2021/12/16 02:59:46;;;;;;;60.13;38.67;;;8.00;99.90;;;;;;5076468;28;20443;-71
2021/12/16 03:02:16;;;;;;;70.35;36.88;;;8.00;99.90;;;;;;5066049;28;20052;-72
2021/12/16 03:04:45;;;;;;;68.93;37.17;;;8.00;99.90;;;;;;5069247;28;20044;-72
2021/12/16 03:07:13;;;;;;;64.35;37.90;;;8.00;99.90;;;;;;5064462;28;20044;-71
2021/12/16 03:15:02;;;;;;;75.45;40.13;;;8.00;99.90;;;;;;5063778;28;20060;-71
2021/12/16 03:17:51;;;;;;;70.20;37.28;;;8.00;99.90;;;;;;5063376;28;20103;-71
2021/12/16 03:20:39;;;;;;;68.55;40.10;;;8.00;99.90;;;;;;5066901;28;20581;-71
2021/12/16 03:31:24;;;;;;;64.60;37.05;;;8.10;99.90;;;;;;5054380;28;20045;-71
2021/12/16 03:38:54;;;;;;;67.22;37.90;;;8.00;99.90;;;;;;5067293;28;20464;-71
2021/12/16 03:41:20;;;;;;;74.80;40.35;;;8.10;99.90;;;;;;5062906;28;20414;-71
2021/12/16 03:43:47;;;;;;;67.18;43.00;;;8.10;99.90;;;;;;5064219;28;20056;-71
2021/12/16 03:46:25;;;;;;;70.53;38.35;;;8.10;99.90;;;;;;5066193;28;20037;-71
2021/12/16 03:49:11;;;;;;;70.22;41.28;;;8.10;99.90;;;;;;5066971;28;20045;-71
2021/12/16 03:51:50;;;;;;;72.53;40.13;;;8.10;99.90;;;;;;5064639;28;20044;-71
2021/12/16 03:54:23;;;;;;;65.75;39.70;;;8.10;99.90;;;;;;5060496;28;20048;-71
2021/12/16 03:56:50;;;;;;;73.72;41.42;;;8.00;99.90;;;;;;5066752;28;20162;-71
2021/12/16 03:59:20;;;;;;;66.70;39.20;;;8.00;99.90;;;;;;5064278;28;20044;-71
2021/12/16 04:01:46;;;;;;;70.38;41.10;;;8.00;99.90;;;;;;5067266;28;20077;-71
2021/12/16 04:04:12;;;;;;;67.88;40.60;;;8.00;99.90;;;;;;5066302;28;20135;-71
2021/12/16 04:06:39;;;;;;;76.10;41.83;;;7.90;99.90;;;;;;5055286;28;20106;-71
2021/12/16 04:09:13;;;;;;;72.03;39.63;;;7.90;99.90;;;;;;5065051;28;20418;-71
2021/12/16 04:11:44;;;;;;;86.80;41.97;;;7.70;99.90;;;;;;5065467;28;20141;-71
2021/12/16 04:14:13;;;;;;;75.18;41.78;;;7.60;99.90;;;;;;5057440;28;20185;-71
2021/12/16 04:16:50;;;;;;;73.80;40.42;;;7.60;99.90;;;;;;5065103;28;20044;-71
2021/12/16 04:19:28;;;;;;;75.68;43.60;;;7.60;99.90;;;;;;5043766;28;20043;-71
2021/12/16 04:21:58;;;;;;;79.97;43.53;;;7.60;99.90;;;;;;5054903;28;20528;-71
2021/12/16 04:24:25;;;;;;;68.82;40.88;;;7.60;99.90;;;;;;5064723;28;20498;-71
2021/12/16 04:26:52;;;;;;;71.45;41.50;;;7.50;99.90;;;;;;5063578;28;20057;-71
2021/12/16 04:29:19;;;;;;;70.68;41.88;;;7.50;99.90;;;;;;5082390;28;20048;-71
2021/12/16 04:31:45;;;;;;;84.43;43.75;;;7.50;99.90;;;;;;5066255;28;20052;-71
2021/12/16 04:34:12;;;;;;;78.55;43.92;;;7.40;99.90;;;;;;5065842;28;20123;-71
2021/12/16 04:36:38;;;;;;;86.18;45.55;;;7.30;99.90;;;;;;5065187;28;20053;-71
2021/12/16 04:39:11;;;;;;;87.10;46.50;;;7.30;99.90;;;;;;5055479;28;20521;-71
2021/12/16 04:41:38;;;;;;;80.13;44.90;;;7.20;99.90;;;;;;5059892;28;20489;-71
2021/12/16 04:44:09;;;;;;;74.60;42.25;;;7.20;99.90;;;;;;5064388;28;20040;-71
2021/12/16 04:46:35;;;;;;;84.82;47.92;;;7.10;99.90;;;;;;5068122;28;20052;-71
2021/12/16 04:49:02;;;;;;;81.05;45.65;;;7.10;99.90;;;;;;5068455;28;20505;-71
2021/12/16 04:51:31;;;;;;;74.18;43.03;;;7.00;99.90;;;;;;5065063;28;20045;-71
2021/12/16 04:53:57;;;;;;;70.18;42.33;;;7.00;99.90;;;;;;5066190;28;20482;-71
2021/12/16 04:56:24;;;;;;;73.03;41.75;;;7.00;99.90;;;;;;5067184;28;20131;-71
2021/12/16 04:58:51;;;;;;;77.07;44.20;;;6.90;99.90;;;;;;5049460;28;20132;-71
2021/12/16 05:01:18;;;;;;;80.22;43.72;;;6.90;99.90;;;;;;5060095;28;20048;-71
2021/12/16 05:03:44;;;;;;;75.78;44.65;;;6.90;99.90;;;;;;5054826;28;20123;-71
2021/12/16 05:06:10;;;;;;;74.05;41.42;;;6.90;99.90;;;;;;5050127;28;20444;-71
2021/12/16 05:08:37;;;;;;;79.18;43.67;;;6.90;99.90;;;;;;5063107;28;20148;-71
2021/12/16 05:11:04;;;;;;;65.93;39.80;;;6.80;99.90;;;;;;5042240;28;20056;-71
2021/12/16 05:13:31;;;;;;;61.58;39.25;;;6.90;99.90;;;;;;5052554;28;20057;-71
2021/12/16 05:16:04;;;;;;;67.95;45.33;;;6.90;99.90;;;;;;5059787;28;20064;-71
2021/12/16 05:18:33;;;;;;;67.28;42.30;;;6.90;99.90;;;;;;5067410;28;20053;-71
2021/12/16 05:21:36;;;;;;;73.88;46.90;;;7.00;99.90;;;;;;5064313;28;20045;-71
2021/12/16 05:24:25;;;;;;;64.40;39.10;;;7.00;99.90;;;;;;5052512;28;20057;-71
2021/12/16 05:26:59;;;;;;;60.45;39.90;;;7.00;99.90;;;;;;5066202;28;20045;-71
2021/12/16 05:29:25;;;;;;;68.13;41.58;;;7.00;99.90;;;;;;5058415;28;20045;-71
2021/12/16 05:31:53;;;;;;;76.50;44.33;;;7.10;99.90;;;;;;5066901;28;20123;-71
2021/12/16 05:34:20;;;;;;;84.40;47.40;;;7.10;99.90;;;;;;5070368;28;20528;-71
2021/12/16 05:36:46;;;;;;;89.40;47.05;;;7.10;99.90;;;;;;5054285;28;20291;-71
2021/12/16 05:39:14;;;;;;;91.97;47.40;;;7.10;99.90;;;;;;5070237;28;20421;-71
2021/12/16 05:41:40;;;;;;;99.82;49.60;;;7.20;99.90;;;;;;5063122;28;20048;-71
2021/12/16 05:44:05;;;;;;;81.75;43.33;;;7.20;99.90;;;;;;5059265;28;20425;-71
2021/12/16 05:46:32;;;;;;;81.65;45.25;;;7.20;99.90;;;;;;5063764;28;20041;-71
2021/12/16 05:49:00;;;;;;;83.32;45.08;;;7.30;99.90;;;;;;5054344;28;20037;-71
2021/12/16 05:51:37;;;;;;;84.32;45.35;;;7.30;99.90;;;;;;5063437;28;20037;-71
2021/12/16 05:54:05;;;;;;;79.40;47.03;;;7.30;99.90;;;;;;5058956;28;20059;-71
2021/12/16 05:56:31;;;;;;;105.07;52.40;;;7.30;99.90;;;;;;5070771;28;20615;-71
2021/12/16 05:58:56;;;;;;;93.35;47.67;;;7.40;99.90;;;;;;5070718;28;20102;-71
2021/12/16 06:01:28;;;;;;;86.60;49.35;;;7.40;99.90;;;;;;5061593;28;20497;-71
2021/12/16 06:03:54;;;;;;;89.28;49.22;;;7.40;99.90;;;;;;5078418;28;20053;-71
2021/12/16 06:06:21;;;;;;;96.10;50.45;;;7.40;99.90;;;;;;5068351;28;20052;-71
2021/12/16 06:08:48;;;;;;;85.45;49.58;;;7.40;99.90;;;;;;5067887;28;20062;-71
2021/12/16 06:11:20;;;;;;;88.63;48.50;;;7.50;99.90;;;;;;5067050;28;20068;-71
2021/12/16 06:27:35;;;;;;;97.75;52.00;;;7.40;99.90;;;;;;5054672;28;20140;-71
2021/12/16 06:30:04;;;;;;;113.25;49.38;;;7.50;99.90;;;;;;5061095;28;20048;-71
2021/12/16 06:32:30;;;;;;;106.07;51.85;;;7.50;99.90;;;;;;5058578;28;20049;-71
2021/12/16 06:34:56;;;;;;;88.40;50.42;;;7.50;99.90;;;;;;5068737;28;20440;-71
2021/12/16 06:37:23;;;;;;;83.22;47.42;;;7.50;99.90;;;;;;5056311;28;20063;-71
2021/12/16 06:39:48;;;;;;;85.07;47.05;;;7.50;99.90;;;;;;5064822;28;20832;-71
2021/12/16 06:42:14;;;;;;;80.80;47.50;;;7.50;99.90;;;;;;5061429;28;20044;-71
2021/12/16 06:44:50;;;;;;;90.45;50.63;;;7.50;99.90;;;;;;5062839;28;20037;-71
2021/12/16 06:47:23;;;;;;;99.63;50.40;;;7.40;99.90;;;;;;5065619;28;20056;-71
2021/12/16 06:49:51;;;;;;;105.25;54.15;;;7.30;99.90;;;;;;5064843;28;20114;-71
2021/12/16 06:52:20;;;;;;;88.88;49.70;;;7.30;99.90;;;;;;5065093;28;20101;-71
2021/12/16 06:55:03;;;;;;;83.53;47.05;;;7.20;99.90;;;;;;5067768;28;20058;-71
2021/12/16 06:57:40;;;;;;;80.95;47.80;;;7.10;99.90;;;;;;5064536;28;20106;-71
2021/12/16 07:00:15;;;;;;;92.15;50.78;;;7.00;99.90;;;;;;5068087;28;20456;-71
2021/12/16 07:05:13;;;;;;;78.78;45.80;;;7.00;99.90;;;;;;5067278;28;20497;-71
2021/12/16 07:07:39;;;;;;;93.47;48.17;;;7.00;99.90;;;;;;5063471;28;20045;-71
2021/12/16 07:10:09;;;;;;;80.20;45.65;;;6.90;99.90;;;;;;5065207;28;20049;-71
2021/12/16 07:12:37;;;;;;;63.95;42.58;;;6.90;99.90;;;;;;5068314;28;20106;-71
2021/12/16 07:15:10;;;;;;;88.05;48.85;;;6.80;99.90;;;;;;5061021;28;20417;-71
2021/12/16 07:17:37;;;;;;;78.72;44.35;;;6.80;99.90;;;;;;5065249;28;20044;-71
2021/12/16 07:20:05;;;;;;;78.78;46.78;;;6.70;99.90;;;;;;5067622;28;20541;-71
2021/12/16 07:22:30;;;;;;;86.72;46.83;;;6.70;99.90;;;;;;5068706;28;20406;-71
2021/12/16 07:24:56;;;;;;;78.90;44.83;;;6.60;99.90;;;;;;5051678;28;20039;-71
2021/12/16 07:27:22;;;;;;;75.25;45.08;;;6.50;99.90;;;;;;5065274;28;20117;-71
2021/12/16 07:29:47;;;;;;;84.00;46.38;;;6.50;99.90;;;;;;5069171;28;20044;-71
2021/12/16 07:32:13;;;;;;;98.32;50.45;;;6.50;99.90;;;;;;5069353;28;20382;-71
2021/12/16 07:34:39;;;;;;;90.57;46.60;;;6.40;99.90;;;;;;5071430;28;20062;-71
2021/12/16 07:37:06;;;;;;;74.40;42.22;;;6.40;99.90;;;;;;5071140;28;20132;-71
2021/12/16 07:39:38;;;;;;;117.93;55.93;;;6.30;99.90;;;;;;5070026;28;20060;-71
2021/12/16 07:42:06;;;;;;;78.97;43.83;;;6.40;99.90;;;;;;5062938;28;20048;-71
2021/12/16 07:44:34;;;;;;;82.80;45.03;;;6.30;99.90;;;;;;5063367;28;20451;-71
2021/12/16 07:47:04;;;;;;;60.40;37.95;;;6.20;99.90;;;;;;5074443;28;20055;-71
2021/12/16 07:49:33;;;;;;;72.03;42.67;;;6.30;99.90;;;;;;5064449;28;20052;-71
2021/12/16 07:52:00;;;;;;;76.95;44.20;;;6.20;99.90;;;;;;5070059;28;20052;-70
2021/12/16 07:54:27;;;;;;;72.40;41.22;;;6.20;99.90;;;;;;5062021;28;20045;-70
2021/12/16 07:56:55;;;;;;;74.80;41.70;;;6.20;99.90;;;;;;5066364;28;20085;-70
2021/12/16 07:59:22;;;;;;;69.20;42.53;;;6.20;99.90;;;;;;5055982;28;20044;-70
2021/12/16 08:01:48;;;;;;;76.20;40.00;;;6.10;99.90;;;;;;5051284;28;20051;-70
2021/12/16 08:04:20;;;;;;;67.53;39.17;;;6.10;99.90;;;;;;5066930;28;20134;-70
2021/12/16 08:06:50;;;;;;;62.58;39.88;;;6.10;99.90;;;;;;5065234;28;20048;-71
2021/12/16 08:09:16;;;;;;;71.78;39.10;;;6.00;99.90;;;;;;5064075;28;20042;-71
2021/12/16 08:11:43;;;;;;;67.68;40.40;;;6.00;99.90;;;;;;5067339;28;20131;-71
2021/12/16 08:14:10;;;;;;;67.82;40.38;;;6.00;99.90;;;;;;5081237;28;20054;-71
2021/12/16 08:16:37;;;;;;;71.78;41.95;;;6.00;99.90;;;;;;5071706;28;20044;-71
2021/12/16 08:19:04;;;;;;;74.07;40.38;;;6.00;99.90;;;;;;5065902;28;20386;-71
2021/12/16 08:21:30;;;;;;;74.65;41.88;;;6.00;99.90;;;;;;5070182;28;20041;-70
2021/12/16 08:23:59;;;;;;;90.72;46.30;;;5.90;99.90;;;;;;5067734;28;20485;-70
2021/12/16 08:26:25;;;;;;;74.68;45.22;;;6.00;99.90;;;;;;5066116;28;20052;-71
2021/12/16 08:28:51;;;;;;;69.32;39.55;;;6.10;99.90;;;;;;5070084;28;20039;-71
2021/12/16 08:31:17;;;;;;;61.67;37.72;;;6.10;99.90;;;;;;5088251;28;20032;-70
2021/12/16 08:33:43;;;;;;;60.33;37.97;;;6.20;99.90;;;;;;5051162;28;20086;-70
2021/12/16 08:36:09;;;;;;;60.50;38.78;;;6.30;99.90;;;;;;5069394;28;20159;-70
2021/12/16 08:38:37;;;;;;;84.95;44.50;;;6.40;99.90;;;;;;5061443;28;20582;-71
2021/12/16 08:41:17;;;;;;;69.60;41.03;;;6.40;99.90;;;;;;5066598;28;20052;-70
2021/12/16 08:43:44;;;;;;;75.03;43.63;;;6.40;99.90;;;;;;5068931;28;20460;-71
2021/12/16 08:46:14;;;;;;;73.47;42.65;;;6.40;99.90;;;;;;5070116;28;20083;-71
2021/12/16 08:48:42;;;;;;;75.30;42.63;;;6.40;99.90;;;;;;5069259;28;20067;-71
2021/12/16 08:51:08;;;;;;;92.55;48.85;;;6.40;99.90;;;;;;5069645;28;20112;-71
2021/12/16 08:53:34;;;;;;;81.60;45.22;;;6.60;99.90;;;;;;5070127;28;20048;-71
2021/12/16 08:55:59;;;;;;;90.93;50.67;;;6.60;99.90;;;;;;5066578;28;20139;-71
2021/12/16 08:58:26;;;;;;;92.90;51.45;;;6.70;99.90;;;;;;5067985;28;20541;-71
2021/12/16 09:00:59;;;;;;;105.18;52.75;;;6.80;99.90;;;;;;5067127;28;20043;-71
2021/12/16 09:03:27;;;;;;;111.25;56.08;;;7.00;99.90;;;;;;5069043;28;20047;-71
2021/12/16 09:05:53;;;;;;;144.20;63.35;;;7.10;99.90;;;;;;5052482;28;20502;-71
2021/12/16 09:08:19;;;;;;;119.18;62.58;;;7.30;99.90;;;;;;5071653;28;20063;-71
2021/12/16 09:10:45;;;;;;;124.63;59.75;;;7.50;99.90;;;;;;5066249;28;20485;-71
2021/12/16 09:13:14;;;;;;;136.00;62.53;;;7.60;99.90;;;;;;5072481;28;20043;-71
2021/12/16 09:15:54;;;;;;;131.07;60.78;;;7.80;99.90;;;;;;5072030;28;20089;-72
2021/12/16 09:18:23;;;;;;;141.27;66.93;;;7.90;99.90;;;;;;5067577;28;20053;-72
2021/12/16 09:20:50;;;;;;;132.18;63.78;;;8.00;99.90;;;;;;5071152;28;20521;-72
2021/12/16 09:23:16;;;;;;;163.32;67.80;;;8.10;99.90;;;;;;5067239;28;20409;-71
2021/12/16 09:25:44;;;;;;;134.15;62.38;;;8.20;99.90;;;;;;5061191;28;20075;-72
2021/12/16 09:28:11;;;;;;;138.70;60.78;;;8.20;99.90;;;;;;5073818;28;20063;-72
2021/12/16 09:30:37;;;;;;;138.98;62.45;;;8.20;99.90;;;;;;5071775;28;20059;-72
2021/12/16 09:33:05;;;;;;;132.95;62.40;;;8.20;99.90;;;;;;5074125;28;20040;-72
2021/12/16 09:35:35;;;;;;;122.70;58.28;;;8.10;99.90;;;;;;5069239;28;20147;-71
2021/12/16 09:38:03;;;;;;;165.40;65.75;;;8.10;99.90;;;;;;5073047;28;20048;-71
2021/12/16 09:40:30;;;;;;;142.88;63.78;;;8.10;99.90;;;;;;5074660;28;20055;-72
2021/12/16 09:42:57;;;;;;;147.52;63.72;;;8.00;99.90;;;;;;5063664;28;20063;-72
2021/12/16 09:45:23;;;;;;;164.40;64.03;;;8.00;99.90;;;;;;5072265;28;20058;-72
2021/12/16 09:47:51;;;;;;;162.75;68.13;;;8.00;99.90;;;;;;5072673;28;20127;-72
2021/12/16 09:50:23;;;;;;;148.40;60.88;;;8.00;99.90;;;;;;5065095;28;20504;-72
2021/12/16 09:52:49;;;;;;;126.93;57.05;;;8.10;99.90;;;;;;5074144;28;20055;-72
2021/12/16 09:55:15;;;;;;;154.68;63.35;;;8.10;99.90;;;;;;5070423;28;20040;-71
2021/12/16 09:57:41;;;;;;;137.45;63.50;;;8.10;99.90;;;;;;5070791;28;20052;-71
2021/12/16 10:00:11;;;;;;;147.02;61.28;;;8.20;99.90;;;;;;5067918;28;20044;-71
2021/12/16 10:02:38;;;;;;;167.90;65.57;;;8.30;99.90;;;;;;5072954;28;20565;-71
2021/12/16 10:05:06;;;;;;;150.43;61.63;;;8.30;99.90;;;;;;5071249;28;20493;-71
2021/12/16 10:07:34;;;;;;;207.10;69.28;;;8.30;99.90;;;;;;5071917;28;20054;-72
2021/12/16 10:10:04;;;;;;;206.50;70.90;;;8.30;99.90;;;;;;5062385;28;20417;-71
2021/12/16 10:12:35;;;;;;;186.25;65.85;;;8.30;99.90;;;;;;5088804;28;20044;-71
2021/12/16 10:15:06;;;;;;;139.80;57.63;;;8.30;99.90;;;;;;5066268;28;20052;-71
2021/12/16 10:17:41;;;;;;;151.07;61.45;;;8.30;99.90;;;;;;5071009;28;20129;-71
2021/12/16 10:20:16;;;;;;;159.15;61.35;;;8.30;99.90;;;;;;5070118;28;20541;-71
2021/12/16 10:22:44;;;;;;;191.90;65.80;;;8.30;99.90;;;;;;5061833;28;20072;-71
2021/12/16 10:25:35;;;;;;;194.45;65.88;;;8.30;99.90;;;;;;5067692;28;20048;-71
2021/12/16 10:28:03;;;;;;;186.52;66.63;;;8.40;99.90;;;;;;5062490;28;20149;-71
2021/12/16 10:30:48;;;;;;;;;;;8.40;99.90;;;;;;5070401;28;20052;-71
2021/12/16 10:33:31;;;;;;;209.27;71.90;;;8.40;99.90;;;;;;5059593;28;19924;-71
2021/12/16 10:36:02;;;;;;;203.68;68.55;;;8.50;99.90;;;;;;5063438;28;20060;-71
2021/12/16 10:38:28;;;;;;;171.00;63.42;;;8.50;99.90;;;;;;5081606;28;20082;-71
2021/12/16 10:40:56;;;;;;;114.45;54.15;;;8.50;99.90;;;;;;5068275;28;20075;-72
2021/12/16 10:43:44;;;;;;;121.10;53.17;;;8.50;99.90;;;;;;5070842;28;20044;-72
2021/12/16 10:46:24;;;;;;;149.02;57.97;;;8.60;99.90;;;;;;5061996;28;20041;-72
2021/12/16 10:49:17;;;;;;;174.07;65.32;;;8.60;99.90;;;;;;5085229;28;20050;-72
2021/12/16 10:51:49;;;;;;;114.22;52.40;;;8.60;99.90;;;;;;5070681;28;20052;-72
2021/12/16 10:54:28;;;;;;;107.68;53.35;;;8.60;99.90;;;;;;5071918;28;20052;-71
2021/12/16 10:57:16;;;;;;;106.47;50.08;;;8.70;99.90;;;;;;5072544;28;20127;-71
2021/12/16 10:59:50;;;;;;;117.50;51.17;;;8.70;99.90;;;;;;5064842;28;20037;-71
2021/12/16 11:02:21;;;;;;;118.10;50.13;;;8.70;99.90;;;;;;5068380;28;20370;-71
2021/12/16 11:04:56;;;;;;;111.70;50.38;;;8.80;99.90;;;;;;5072133;28;20048;-71
2021/12/16 11:07:31;;;;;;;107.32;49.90;;;8.80;99.90;;;;;;5069265;28;20053;-71
2021/12/16 11:10:00;;;;;;;103.25;48.97;;;8.90;99.90;;;;;;5059643;28;20124;-71
2021/12/16 11:12:34;;;;;;;145.98;55.20;;;8.80;99.90;;;;;;5066870;28;20101;-71
2021/12/16 11:15:21;;;;;;;100.07;49.17;;;8.90;99.90;;;;;;5054956;28;20048;-71
2021/12/16 11:17:58;;;;;;;100.43;49.40;;;8.90;99.90;;;;;;5089308;28;20054;-71
2021/12/16 11:20:38;;;;;;;164.05;59.33;;;8.90;99.90;;;;;;5072673;28;20496;-71
2021/12/16 11:23:17;;;;;;;113.07;52.75;;;9.00;99.90;;;;;;5072208;28;20097;-71
2021/12/16 11:25:55;;;;;;;139.63;58.75;;;9.00;99.90;;;;;;5068796;28;20052;-71
2021/12/16 11:28:31;;;;;;;122.35;53.22;;;9.00;99.90;;;;;;5070612;28;20081;-71
2021/12/16 11:31:09;;;;;;;110.53;51.42;;;9.10;99.90;;;;;;5088845;28;20083;-71
2021/12/16 11:33:48;;;;;;;112.80;51.35;;;9.10;99.90;;;;;;5073262;28;20171;-71
2021/12/16 11:36:31;;;;;;;101.10;51.25;;;9.10;99.90;;;;;;5067063;28;20195;-71
2021/12/16 11:39:22;;;;;;;134.23;53.45;;;9.10;99.90;;;;;;5057844;28;20115;-71
2021/12/16 11:41:56;;;;;;;128.05;54.47;;;9.20;99.90;;;;;;5062330;28;20504;-71
2021/12/16 11:44:29;;;;;;;141.52;54.95;;;9.20;99.90;;;;;;5052675;28;20174;-71
2021/12/16 11:47:10;;;;;;;120.20;50.63;;;9.20;99.90;;;;;;5071305;28;20511;-71
2021/12/16 11:49:42;;;;;;;141.75;51.00;;;9.20;99.90;;;;;;5071248;28;20097;-71
2021/12/16 11:52:17;;;;;;;112.82;49.85;;;9.20;99.90;;;;;;5065282;28;20052;-71
2021/12/16 11:55:08;;;;;;;113.80;50.20;;;9.20;99.90;;;;;;5067974;28;20048;-71
2021/12/16 11:57:35;;;;;;;99.07;46.88;;;9.20;99.90;;;;;;5066336;28;20502;-71
2021/12/16 12:00:09;;;;;;;102.78;51.28;;;9.20;99.90;;;;;;5066984;28;20036;-71
2021/12/16 12:02:47;;;;;;;112.60;49.97;;;9.20;99.90;;;;;;5076299;28;20123;-71
2021/12/16 12:05:22;;;;;;;99.53;47.97;;;9.20;99.90;;;;;;5071610;28;20074;-71
2021/12/16 12:08:02;;;;;;;85.40;42.65;;;9.20;99.90;;;;;;5060940;28;20044;-71
2021/12/16 12:11:00;;;;;;;104.07;45.42;;;9.30;99.90;;;;;;5067071;28;20743;-71
2021/12/16 12:13:27;;;;;;;93.63;43.72;;;9.30;99.90;;;;;;5070642;28;20051;-71
2021/12/16 12:16:08;;;;;;;100.28;47.95;;;9.20;99.90;;;;;;5068926;28;20041;-71
2021/12/16 12:18:54;;;;;;;97.40;42.58;;;9.30;99.90;;;;;;5052860;28;20086;-71
2021/12/16 12:21:38;;;;;;;88.72;43.70;;;9.30;99.90;;;;;;5070852;28;20123;-71
2021/12/16 12:24:03;;;;;;;87.13;43.65;;;9.20;99.90;;;;;;5060470;28;20052;-71
2021/12/16 12:26:32;;;;;;;86.80;44.95;;;9.20;99.90;;;;;;5067649;28;20519;-71
2021/12/16 12:29:11;;;;;;;98.50;45.53;;;9.20;99.90;;;;;;5069892;28;20418;-71
2021/12/16 12:31:41;;;;;;;95.47;45.30;;;9.20;99.90;;;;;;5069050;28;20122;-71
2021/12/16 12:34:07;;;;;;;91.20;44.55;;;9.30;99.90;;;;;;5070769;28;20058;-71
2021/12/16 12:36:34;;;;;;;94.07;43.22;;;9.30;99.90;;;;;;5058263;28;20040;-71
2021/12/16 12:39:03;;;;;;;88.50;41.55;;;9.20;99.90;;;;;;5044828;28;20082;-71
2021/12/16 12:41:29;;;;;;;90.32;41.78;;;9.20;99.90;;;;;;5066681;28;20958;-71
2021/12/16 12:43:56;;;;;;;88.10;41.33;;;9.20;99.90;;;;;;5068332;28;20037;-71
2021/12/16 12:46:22;;;;;;;91.40;42.30;;;9.20;99.90;;;;;;5070865;28;20055;-71
2021/12/16 12:48:49;;;;;;;88.43;42.75;;;9.30;99.90;;;;;;5069519;28;20047;-71
2021/12/16 12:51:15;;;;;;;99.93;42.70;;;9.30;99.90;;;;;;5065449;28;20087;-71
2021/12/16 12:53:51;;;;;;;84.28;39.08;;;9.30;99.90;;;;;;5059545;28;20040;-71
2021/12/16 12:56:27;;;;;;;74.38;38.65;;;9.30;99.90;;;;;;5061628;28;20098;-71
2021/12/16 12:59:06;;;;;;;76.25;40.53;;;9.30;99.90;;;;;;5060644;28;20049;-71
2021/12/16 13:01:38;;;;;;;90.95;38.38;;;9.30;99.90;;;;;;5068060;28;20101;-72
2021/12/16 13:04:15;;;;;;;78.28;40.10;;;9.30;99.90;;;;;;5067363;28;20051;-72
2021/12/16 13:06:51;;;;;;;91.88;40.97;;;9.30;99.90;;;;;;5060302;28;20137;-72
2021/12/16 13:09:54;;;;;;;73.47;37.13;;;9.30;99.90;;;;;;5060353;28;20074;-72
2021/12/16 13:12:49;;;;;;;72.20;37.70;;;9.30;99.90;;;;;;5082246;28;20066;-72
2021/12/16 13:15:27;;;;;;;74.03;35.50;;;9.30;99.90;;;;;;5067693;28;20524;-72
2021/12/16 13:30:06;;;;;;;69.85;33.78;;;9.30;99.90;;;;;;5042323;28;20056;-71
2021/12/16 13:32:43;;;;;;;61.22;30.55;;;9.30;99.90;;;;;;5046059;28;20048;-71
2021/12/16 13:37:52;;;;;;;79.38;34.95;;;9.30;99.90;;;;;;5029805;28;20499;-71
2021/12/16 13:40:20;;;;;;;62.88;32.63;;;9.30;99.90;;;;;;5040620;28;20045;-71
2021/12/16 13:43:00;;;;;;;64.68;30.05;;;9.20;99.90;;;;;;5044481;28;20052;-71
2021/12/16 13:45:38;;;;;;;66.03;31.02;;;9.20;99.90;;;;;;5047181;28;20045;-71
2021/12/16 14:05:19;;;;;;;;;;;9.20;99.90;;;;;;5049017;28;20084;-71
2021/12/16 14:08:01;;;;;;;73.05;34.55;;;9.20;99.90;;;;;;5046786;28;19929;-71
2021/12/16 14:10:43;;;;;;;76.05;35.20;;;9.20;99.90;;;;;;5043848;28;20053;-70
2021/12/16 14:49:41;;;;;;;115.07;38.42;;;9.10;99.90;;;;;;5067820;28;20059;-71
2021/12/16 14:52:20;;;;;;;79.00;37.47;;;9.10;99.90;;;;;;5064523;28;20049;-71
2021/12/16 14:54:55;;;;;;;85.55;35.58;;;9.10;99.90;;;;;;5051622;28;20056;-71
2021/12/16 14:57:24;;;;;;;80.63;36.55;;;9.10;99.90;;;;;;5069785;28;20060;-71
2021/12/16 14:59:51;;;;;;;75.60;34.45;;;9.10;99.90;;;;;;5063218;28;20516;-71
2021/12/16 15:02:17;;;;;;;67.43;33.08;;;9.10;99.90;;;;;;5053862;28;20401;-71
2021/12/16 15:04:43;;;;;;;89.88;36.40;;;9.10;99.90;;;;;;5056143;28;20124;-71
2021/12/16 15:07:11;;;;;;;90.75;35.13;;;9.10;99.90;;;;;;5052871;28;20290;-71
2021/12/16 15:09:39;;;;;;;77.78;34.30;;;9.10;99.90;;;;;;5069162;28;20109;-71
2021/12/16 15:12:21;;;;;;;81.00;33.85;;;9.00;99.90;;;;;;5068062;28;20512;-71
2021/12/16 15:45:38;;;;;;;72.90;30.17;;;8.80;99.90;;;;;;5066140;28;20048;-71
2021/12/16 15:48:04;;;;;;;65.28;28.75;;;8.80;99.90;;;;;;5062630;28;20056;-72
2021/12/16 15:50:48;;;;;;;70.93;29.92;;;8.70;99.90;;;;;;5065559;28;20052;-71
2021/12/16 15:53:19;;;;;;;63.60;29.02;;;8.70;99.90;;;;;;5066385;28;20052;-72
2021/12/16 15:55:49;;;;;;;67.53;28.33;;;8.70;99.90;;;;;;5067430;28;20094;-71
2021/12/16 15:58:20;;;;;;;79.18;29.13;;;8.60;99.90;;;;;;5066242;28;20049;-72
2021/12/16 16:00:50;;;;;;;99.55;31.75;;;8.60;99.90;;;;;;5066328;28;20532;-72
2021/12/16 16:03:17;;;;;;;54.65;27.25;;;8.60;99.90;;;;;;5065777;28;20091;-72
2021/12/16 16:05:47;;;;;;;54.13;28.20;;;8.60;99.90;;;;;;5063805;28;20051;-72
2021/12/16 16:08:16;;;;;;;98.60;33.35;;;8.50;99.90;;;;;;5067017;28;20091;-72
2021/12/16 16:10:44;;;;;;;81.22;31.23;;;8.50;99.90;;;;;;5057642;28;20046;-73
2021/12/16 16:13:12;;;;;;;91.93;33.85;;;8.50;99.90;;;;;;5062511;28;20055;-73
2021/12/16 16:15:38;;;;;;;;;;;8.60;99.90;;;;;;5068069;28;20759;-73
2021/12/16 16:18:32;;;;;;;83.63;31.65;;;8.50;99.90;;;;;;5050023;28;20347;-73
2021/12/16 16:21:21;;;;;;;99.20;37.55;;;8.50;99.90;;;;;;5062052;28;20055;-73
2021/12/16 16:23:53;;;;;;;94.40;37.85;;;8.50;99.90;;;;;;5067648;28;20051;-73
2021/12/16 16:26:20;;;;;;;106.32;35.47;;;8.50;99.90;;;;;;5066457;28;20136;-73
2021/12/16 16:28:49;;;;;;;90.18;32.90;;;8.50;99.90;;;;;;5069881;28;20102;-73
2021/12/16 16:31:23;;;;;;;85.28;33.67;;;8.50;99.90;;;;;;5067238;28;20105;-73
2021/12/16 16:33:50;;;;;;;94.40;32.42;;;8.50;99.90;;;;;;5059392;28;20040;-72
2021/12/16 16:36:19;;;;;;;67.18;31.48;;;8.50;99.90;;;;;;5067079;28;20051;-72
2021/12/16 16:38:52;;;;;;;78.60;31.63;;;8.50;99.90;;;;;;5064744;28;20041;-72
2021/12/16 16:41:21;;;;;;;130.80;41.35;;;8.60;99.90;;;;;;5066053;28;20044;-72
2021/12/16 16:44:04;;;;;;;87.35;35.08;;;8.50;99.90;;;;;;5066060;28;20047;-73
2021/12/16 16:46:44;;;;;;;76.22;32.97;;;8.50;99.90;;;;;;5060621;28;20117;-73
2021/12/16 16:49:25;;;;;;;120.72;39.85;;;8.50;99.90;;;;;;5059486;28;20524;-73
2021/12/16 16:51:52;;;;;;;192.52;48.28;;;8.50;99.90;;;;;;5058645;28;20037;-73
2021/12/16 16:54:26;;;;;;;76.40;33.38;;;8.50;99.90;;;;;;5063428;28;20053;-73
2021/12/16 16:56:57;;;;;;;122.90;39.92;;;8.50;99.90;;;;;;5060029;28;20046;-73